sensor_id;sensor_type;location;lat;lon;timestamp;P1;durP1;ratioP1;P2;durP2;ratioP2
16660;SDS011;8444;52.012;5.048;2023-01-23T00:01:33;21.07;;;10.90;;
16660;SDS011;8444;52.012;5.048;2023-01-23T00:03:58;15.93;;;10.40;;
16660;SDS011;8444;52.012;5.048;2023-01-23T00:06:24;21.30;;;10.73;;
16660;SDS011;8444;52.012;5.048;2023-01-23T00:08:50;21.80;;;10.33;;
16660;SDS011;8444;52.012;5.048;2023-01-23T00:11:17;16.27;;;10.13;;
16660;SDS011;8444;52.012;5.048;2023-01-23T00:13:42;16.37;;;9.53;;
16660;SDS011;8444;52.012;5.048;2023-01-23T00:16:09;18.50;;;10.63;;
16660;SDS011;8444;52.012;5.048;2023-01-23T00:18:35;15.77;;;9.67;;
16660;SDS011;8444;52.012;5.048;2023-01-23T00:21:07;14.97;;;9.87;;
16660;SDS011;8444;52.012;5.048;2023-01-23T00:23:32;17.53;;;9.40;;
16660;SDS011;8444;52.012;5.048;2023-01-23T00:26:04;19.53;;;9.80;;
16660;SDS011;8444;52.012;5.048;2023-01-23T00:28:30;14.27;;;8.70;;
16660;SDS011;8444;52.012;5.048;2023-01-23T00:31:05;15.97;;;9.47;;
16660;SDS011;8444;52.012;5.048;2023-01-23T00:33:30;20.63;;;10.57;;
16660;SDS011;8444;52.012;5.048;2023-01-23T00:35:56;19.80;;;10.07;;
16660;SDS011;8444;52.012;5.048;2023-01-23T00:38:21;15.90;;;10.13;;
16660;SDS011;8444;52.012;5.048;2023-01-23T00:40:46;17.63;;;9.37;;
16660;SDS011;8444;52.012;5.048;2023-01-23T00:43:11;14.40;;;9.67;;
16660;SDS011;8444;52.012;5.048;2023-01-23T00:45:37;18.20;;;9.70;;
16660;SDS011;8444;52.012;5.048;2023-01-23T00:48:02;15.20;;;9.33;;
16660;SDS011;8444;52.012;5.048;2023-01-23T00:50:27;19.47;;;11.20;;
16660;SDS011;8444;52.012;5.048;2023-01-23T00:52:52;18.73;;;10.70;;
16660;SDS011;8444;52.012;5.048;2023-01-23T00:55:18;19.07;;;9.60;;
16660;SDS011;8444;52.012;5.048;2023-01-23T00:57:43;18.00;;;9.40;;
16660;SDS011;8444;52.012;5.048;2023-01-23T01:00:08;19.67;;;9.70;;
16660;SDS011;8444;52.012;5.048;2023-01-23T01:02:33;16.30;;;9.37;;
16660;SDS011;8444;52.012;5.048;2023-01-23T01:04:59;16.00;;;9.20;;
16660;SDS011;8444;52.012;5.048;2023-01-23T01:07:24;19.17;;;10.77;;
16660;SDS011;8444;52.012;5.048;2023-01-23T01:09:49;19.13;;;8.97;;
16660;SDS011;8444;52.012;5.048;2023-01-23T01:12:14;17.57;;;9.60;;
16660;SDS011;8444;52.012;5.048;2023-01-23T01:14:40;20.67;;;10.00;;
16660;SDS011;8444;52.012;5.048;2023-01-23T01:17:05;20.97;;;10.50;;
16660;SDS011;8444;52.012;5.048;2023-01-23T01:19:31;20.80;;;10.00;;
16660;SDS011;8444;52.012;5.048;2023-01-23T01:21:56;16.07;;;9.87;;
16660;SDS011;8444;52.012;5.048;2023-01-23T01:24:21;18.57;;;9.77;;
16660;SDS011;8444;52.012;5.048;2023-01-23T01:26:46;18.07;;;9.83;;
16660;SDS011;8444;52.012;5.048;2023-01-23T01:29:11;19.40;;;10.07;;
16660;SDS011;8444;52.012;5.048;2023-01-23T01:31:37;18.00;;;10.67;;
16660;SDS011;8444;52.012;5.048;2023-01-23T01:34:02;17.93;;;11.53;;
16660;SDS011;8444;52.012;5.048;2023-01-23T01:36:27;19.13;;;10.83;;
16660;SDS011;8444;52.012;5.048;2023-01-23T01:38:52;21.83;;;11.27;;
16660;SDS011;8444;52.012;5.048;2023-01-23T01:41:17;19.13;;;10.53;;
16660;SDS011;8444;52.012;5.048;2023-01-23T01:43:43;22.57;;;10.87;;
16660;SDS011;8444;52.012;5.048;2023-01-23T01:51:34;20.73;;;11.40;;
16660;SDS011;8444;52.012;5.048;2023-01-23T01:54:03;18.77;;;10.73;;
16660;SDS011;8444;52.012;5.048;2023-01-23T01:56:31;23.53;;;10.40;;
16660;SDS011;8444;52.012;5.048;2023-01-23T01:58:59;19.10;;;10.33;;
16660;SDS011;8444;52.012;5.048;2023-01-23T02:01:25;18.03;;;10.80;;
16660;SDS011;8444;52.012;5.048;2023-01-23T02:03:50;21.53;;;11.10;;
16660;SDS011;8444;52.012;5.048;2023-01-23T02:06:17;19.60;;;11.07;;
16660;SDS011;8444;52.012;5.048;2023-01-23T02:09:00;19.93;;;10.17;;
16660;SDS011;8444;52.012;5.048;2023-01-23T02:11:27;19.70;;;11.13;;
16660;SDS011;8444;52.012;5.048;2023-01-23T02:13:52;22.83;;;10.87;;
16660;SDS011;8444;52.012;5.048;2023-01-23T02:16:23;21.47;;;10.40;;
16660;SDS011;8444;52.012;5.048;2023-01-23T02:18:50;18.97;;;11.17;;
16660;SDS011;8444;52.012;5.048;2023-01-23T02:21:19;19.47;;;11.63;;
16660;SDS011;8444;52.012;5.048;2023-01-23T02:26:11;20.53;;;12.30;;
16660;SDS011;8444;52.012;5.048;2023-01-23T02:28:38;19.53;;;10.60;;
16660;SDS011;8444;52.012;5.048;2023-01-23T02:31:04;22.13;;;11.23;;
16660;SDS011;8444;52.012;5.048;2023-01-23T02:35:55;22.20;;;10.70;;
16660;SDS011;8444;52.012;5.048;2023-01-23T02:38:21;19.33;;;11.07;;
16660;SDS011;8444;52.012;5.048;2023-01-23T02:40:48;23.00;;;11.57;;
16660;SDS011;8444;52.012;5.048;2023-01-23T02:43:14;25.53;;;12.17;;
16660;SDS011;8444;52.012;5.048;2023-01-23T02:45:41;23.63;;;12.50;;
16660;SDS011;8444;52.012;5.048;2023-01-23T02:48:06;22.17;;;11.07;;
16660;SDS011;8444;52.012;5.048;2023-01-23T02:50:32;21.37;;;10.37;;
16660;SDS011;8444;52.012;5.048;2023-01-23T02:52:57;21.57;;;11.20;;
16660;SDS011;8444;52.012;5.048;2023-01-23T02:55:23;22.47;;;11.97;;
16660;SDS011;8444;52.012;5.048;2023-01-23T02:57:50;20.37;;;10.80;;
16660;SDS011;8444;52.012;5.048;2023-01-23T03:00:16;20.47;;;11.87;;
16660;SDS011;8444;52.012;5.048;2023-01-23T03:02:43;19.73;;;12.50;;
16660;SDS011;8444;52.012;5.048;2023-01-23T03:05:09;21.13;;;11.13;;
16660;SDS011;8444;52.012;5.048;2023-01-23T03:07:34;20.37;;;11.20;;
16660;SDS011;8444;52.012;5.048;2023-01-23T03:10:00;18.37;;;11.13;;
16660;SDS011;8444;52.012;5.048;2023-01-23T03:12:25;18.63;;;11.37;;
16660;SDS011;8444;52.012;5.048;2023-01-23T03:14:50;24.33;;;11.77;;
16660;SDS011;8444;52.012;5.048;2023-01-23T03:17:18;25.70;;;11.93;;
16660;SDS011;8444;52.012;5.048;2023-01-23T03:19:44;24.50;;;12.97;;
16660;SDS011;8444;52.012;5.048;2023-01-23T03:22:09;22.83;;;11.37;;
16660;SDS011;8444;52.012;5.048;2023-01-23T03:24:34;24.03;;;12.57;;
16660;SDS011;8444;52.012;5.048;2023-01-23T03:27:00;22.83;;;11.90;;
16660;SDS011;8444;52.012;5.048;2023-01-23T03:29:25;22.40;;;11.83;;
16660;SDS011;8444;52.012;5.048;2023-01-23T03:32:09;15.77;;;9.70;;
16660;SDS011;8444;52.012;5.048;2023-01-23T03:34:35;21.57;;;11.30;;
16660;SDS011;8444;52.012;5.048;2023-01-23T03:37:01;25.27;;;12.97;;
16660;SDS011;8444;52.012;5.048;2023-01-23T03:39:27;21.30;;;12.30;;
16660;SDS011;8444;52.012;5.048;2023-01-23T03:42:11;24.93;;;12.37;;
16660;SDS011;8444;52.012;5.048;2023-01-23T03:44:36;24.27;;;13.40;;
16660;SDS011;8444;52.012;5.048;2023-01-23T03:47:02;20.33;;;12.37;;
16660;SDS011;8444;52.012;5.048;2023-01-23T03:49:27;25.47;;;11.83;;
16660;SDS011;8444;52.012;5.048;2023-01-23T03:51:52;23.77;;;13.30;;
16660;SDS011;8444;52.012;5.048;2023-01-23T03:54:17;27.40;;;12.07;;
16660;SDS011;8444;52.012;5.048;2023-01-23T03:56:43;26.37;;;12.80;;
16660;SDS011;8444;52.012;5.048;2023-01-23T03:59:08;25.57;;;12.57;;
16660;SDS011;8444;52.012;5.048;2023-01-23T04:01:33;25.00;;;12.50;;
16660;SDS011;8444;52.012;5.048;2023-01-23T04:03:59;29.40;;;11.90;;
16660;SDS011;8444;52.012;5.048;2023-01-23T04:06:24;21.40;;;12.13;;
16660;SDS011;8444;52.012;5.048;2023-01-23T04:11:23;26.30;;;12.43;;
16660;SDS011;8444;52.012;5.048;2023-01-23T04:13:50;28.80;;;14.67;;
16660;SDS011;8444;52.012;5.048;2023-01-23T04:16:15;23.83;;;12.77;;
16660;SDS011;8444;52.012;5.048;2023-01-23T04:18:40;24.23;;;12.27;;
16660;SDS011;8444;52.012;5.048;2023-01-23T04:21:06;29.97;;;13.23;;
16660;SDS011;8444;52.012;5.048;2023-01-23T04:23:31;25.70;;;13.27;;
16660;SDS011;8444;52.012;5.048;2023-01-23T04:25:56;21.37;;;12.20;;
16660;SDS011;8444;52.012;5.048;2023-01-23T04:28:21;27.20;;;12.77;;
16660;SDS011;8444;52.012;5.048;2023-01-23T04:30:48;22.67;;;12.73;;
16660;SDS011;8444;52.012;5.048;2023-01-23T04:33:13;28.40;;;14.67;;
16660;SDS011;8444;52.012;5.048;2023-01-23T04:35:38;22.40;;;12.43;;
16660;SDS011;8444;52.012;5.048;2023-01-23T04:38:04;21.63;;;12.00;;
16660;SDS011;8444;52.012;5.048;2023-01-23T04:40:29;27.80;;;12.63;;
16660;SDS011;8444;52.012;5.048;2023-01-23T04:42:54;24.50;;;12.03;;
16660;SDS011;8444;52.012;5.048;2023-01-23T04:45:19;23.00;;;12.87;;
16660;SDS011;8444;52.012;5.048;2023-01-23T04:47:45;23.40;;;12.40;;
16660;SDS011;8444;52.012;5.048;2023-01-23T04:50:10;19.77;;;11.70;;
16660;SDS011;8444;52.012;5.048;2023-01-23T04:52:35;22.63;;;12.13;;
16660;SDS011;8444;52.012;5.048;2023-01-23T04:55:01;24.47;;;13.60;;
16660;SDS011;8444;52.012;5.048;2023-01-23T04:57:26;24.20;;;13.07;;
16660;SDS011;8444;52.012;5.048;2023-01-23T04:59:51;24.23;;;12.93;;
16660;SDS011;8444;52.012;5.048;2023-01-23T05:02:17;27.93;;;14.03;;
16660;SDS011;8444;52.012;5.048;2023-01-23T05:04:42;24.37;;;12.97;;
16660;SDS011;8444;52.012;5.048;2023-01-23T05:07:07;23.07;;;12.73;;
16660;SDS011;8444;52.012;5.048;2023-01-23T05:09:36;23.97;;;12.53;;
16660;SDS011;8444;52.012;5.048;2023-01-23T05:12:01;29.13;;;13.40;;
16660;SDS011;8444;52.012;5.048;2023-01-23T05:14:26;24.83;;;12.90;;
16660;SDS011;8444;52.012;5.048;2023-01-23T05:16:51;23.10;;;13.27;;
16660;SDS011;8444;52.012;5.048;2023-01-23T05:19:16;25.97;;;13.20;;
16660;SDS011;8444;52.012;5.048;2023-01-23T05:21:42;25.53;;;13.70;;
16660;SDS011;8444;52.012;5.048;2023-01-23T05:24:07;26.10;;;14.17;;
16660;SDS011;8444;52.012;5.048;2023-01-23T05:26:34;25.17;;;12.87;;
16660;SDS011;8444;52.012;5.048;2023-01-23T05:28:59;24.07;;;12.53;;
16660;SDS011;8444;52.012;5.048;2023-01-23T05:31:25;29.70;;;14.13;;
16660;SDS011;8444;52.012;5.048;2023-01-23T05:33:50;19.90;;;11.83;;
16660;SDS011;8444;52.012;5.048;2023-01-23T05:36:15;26.93;;;12.67;;
16660;SDS011;8444;52.012;5.048;2023-01-23T05:38:40;23.47;;;13.93;;
16660;SDS011;8444;52.012;5.048;2023-01-23T05:41:06;24.00;;;13.27;;
16660;SDS011;8444;52.012;5.048;2023-01-23T05:43:31;25.07;;;12.50;;
16660;SDS011;8444;52.012;5.048;2023-01-23T05:45:58;29.77;;;13.83;;
16660;SDS011;8444;52.012;5.048;2023-01-23T05:48:23;28.43;;;14.77;;
16660;SDS011;8444;52.012;5.048;2023-01-23T05:50:48;27.40;;;15.23;;
16660;SDS011;8444;52.012;5.048;2023-01-23T05:53:13;25.33;;;13.30;;
16660;SDS011;8444;52.012;5.048;2023-01-23T05:55:39;28.13;;;13.10;;
16660;SDS011;8444;52.012;5.048;2023-01-23T05:58:04;25.90;;;12.80;;
16660;SDS011;8444;52.012;5.048;2023-01-23T06:00:29;21.60;;;13.33;;
16660;SDS011;8444;52.012;5.048;2023-01-23T06:02:54;22.97;;;14.17;;
16660;SDS011;8444;52.012;5.048;2023-01-23T06:05:19;27.13;;;13.67;;
16660;SDS011;8444;52.012;5.048;2023-01-23T06:07:45;23.50;;;12.77;;
16660;SDS011;8444;52.012;5.048;2023-01-23T06:10:10;31.43;;;14.90;;
16660;SDS011;8444;52.012;5.048;2023-01-23T06:12:35;25.87;;;13.73;;
16660;SDS011;8444;52.012;5.048;2023-01-23T06:15:01;26.53;;;13.53;;
16660;SDS011;8444;52.012;5.048;2023-01-23T06:17:26;26.37;;;15.23;;
16660;SDS011;8444;52.012;5.048;2023-01-23T06:19:51;23.13;;;14.20;;
16660;SDS011;8444;52.012;5.048;2023-01-23T06:22:16;22.47;;;12.83;;
16660;SDS011;8444;52.012;5.048;2023-01-23T06:24:41;25.43;;;13.90;;
16660;SDS011;8444;52.012;5.048;2023-01-23T06:27:06;24.77;;;13.53;;
16660;SDS011;8444;52.012;5.048;2023-01-23T06:29:35;22.20;;;12.90;;
16660;SDS011;8444;52.012;5.048;2023-01-23T06:32:01;23.87;;;13.23;;
16660;SDS011;8444;52.012;5.048;2023-01-23T06:34:26;24.57;;;14.53;;
16660;SDS011;8444;52.012;5.048;2023-01-23T06:36:51;23.83;;;12.70;;
16660;SDS011;8444;52.012;5.048;2023-01-23T06:39:17;26.50;;;14.07;;
16660;SDS011;8444;52.012;5.048;2023-01-23T06:41:42;26.47;;;13.70;;
16660;SDS011;8444;52.012;5.048;2023-01-23T06:44:07;25.07;;;15.30;;
16660;SDS011;8444;52.012;5.048;2023-01-23T06:46:33;25.60;;;13.37;;
16660;SDS011;8444;52.012;5.048;2023-01-23T06:48:58;28.97;;;13.57;;
16660;SDS011;8444;52.012;5.048;2023-01-23T06:51:23;24.63;;;12.83;;
16660;SDS011;8444;52.012;5.048;2023-01-23T06:53:48;25.63;;;13.90;;
16660;SDS011;8444;52.012;5.048;2023-01-23T06:56:14;30.83;;;14.80;;
16660;SDS011;8444;52.012;5.048;2023-01-23T06:58:42;26.43;;;13.47;;
16660;SDS011;8444;52.012;5.048;2023-01-23T07:01:08;26.00;;;13.47;;
16660;SDS011;8444;52.012;5.048;2023-01-23T07:03:34;25.27;;;14.00;;
16660;SDS011;8444;52.012;5.048;2023-01-23T07:06:02;22.33;;;12.90;;
16660;SDS011;8444;52.012;5.048;2023-01-23T07:08:30;27.10;;;14.87;;
16660;SDS011;8444;52.012;5.048;2023-01-23T07:10:55;25.67;;;14.83;;
16660;SDS011;8444;52.012;5.048;2023-01-23T07:13:21;24.57;;;13.60;;
16660;SDS011;8444;52.012;5.048;2023-01-23T07:15:46;24.60;;;13.47;;
16660;SDS011;8444;52.012;5.048;2023-01-23T07:18:11;25.40;;;14.70;;
16660;SDS011;8444;52.012;5.048;2023-01-23T07:20:37;26.50;;;14.70;;
16660;SDS011;8444;52.012;5.048;2023-01-23T07:23:02;22.43;;;13.03;;
16660;SDS011;8444;52.012;5.048;2023-01-23T07:25:27;27.63;;;13.77;;
16660;SDS011;8444;52.012;5.048;2023-01-23T07:27:52;23.77;;;14.27;;
16660;SDS011;8444;52.012;5.048;2023-01-23T07:30:17;22.07;;;13.50;;
16660;SDS011;8444;52.012;5.048;2023-01-23T07:32:43;26.47;;;13.87;;
16660;SDS011;8444;52.012;5.048;2023-01-23T07:35:08;27.67;;;15.27;;
16660;SDS011;8444;52.012;5.048;2023-01-23T07:37:33;25.80;;;13.00;;
16660;SDS011;8444;52.012;5.048;2023-01-23T07:39:58;20.97;;;12.60;;
16660;SDS011;8444;52.012;5.048;2023-01-23T07:42:24;22.40;;;14.27;;
16660;SDS011;8444;52.012;5.048;2023-01-23T07:44:49;24.43;;;13.77;;
16660;SDS011;8444;52.012;5.048;2023-01-23T07:47:14;24.50;;;13.80;;
16660;SDS011;8444;52.012;5.048;2023-01-23T07:49:39;29.17;;;14.83;;
16660;SDS011;8444;52.012;5.048;2023-01-23T07:52:05;23.80;;;14.30;;
16660;SDS011;8444;52.012;5.048;2023-01-23T07:54:30;27.30;;;13.63;;
16660;SDS011;8444;52.012;5.048;2023-01-23T07:56:55;28.03;;;14.50;;
16660;SDS011;8444;52.012;5.048;2023-01-23T07:59:20;31.80;;;14.87;;
16660;SDS011;8444;52.012;5.048;2023-01-23T08:01:46;28.40;;;16.90;;
16660;SDS011;8444;52.012;5.048;2023-01-23T08:04:12;23.53;;;14.37;;
16660;SDS011;8444;52.012;5.048;2023-01-23T08:06:38;24.80;;;14.97;;
16660;SDS011;8444;52.012;5.048;2023-01-23T08:09:03;29.57;;;14.93;;
16660;SDS011;8444;52.012;5.048;2023-01-23T08:11:29;24.57;;;14.40;;
16660;SDS011;8444;52.012;5.048;2023-01-23T08:13:54;24.23;;;13.93;;
16660;SDS011;8444;52.012;5.048;2023-01-23T08:16:19;26.00;;;15.30;;
16660;SDS011;8444;52.012;5.048;2023-01-23T08:18:45;27.33;;;14.53;;
16660;SDS011;8444;52.012;5.048;2023-01-23T08:21:10;21.87;;;13.83;;
16660;SDS011;8444;52.012;5.048;2023-01-23T08:23:35;25.43;;;14.27;;
16660;SDS011;8444;52.012;5.048;2023-01-23T08:26:02;29.50;;;15.27;;
16660;SDS011;8444;52.012;5.048;2023-01-23T08:28:27;22.93;;;14.63;;
16660;SDS011;8444;52.012;5.048;2023-01-23T08:30:53;28.23;;;15.33;;
16660;SDS011;8444;52.012;5.048;2023-01-23T08:33:19;23.67;;;14.50;;
16660;SDS011;8444;52.012;5.048;2023-01-23T08:35:48;26.43;;;14.20;;
16660;SDS011;8444;52.012;5.048;2023-01-23T08:38:13;23.67;;;14.17;;
16660;SDS011;8444;52.012;5.048;2023-01-23T08:40:38;25.10;;;15.53;;
16660;SDS011;8444;52.012;5.048;2023-01-23T08:43:03;23.53;;;13.93;;
16660;SDS011;8444;52.012;5.048;2023-01-23T08:45:29;25.33;;;14.10;;
16660;SDS011;8444;52.012;5.048;2023-01-23T08:47:55;23.93;;;13.53;;
16660;SDS011;8444;52.012;5.048;2023-01-23T08:50:20;24.23;;;14.70;;
16660;SDS011;8444;52.012;5.048;2023-01-23T08:52:45;24.90;;;14.90;;
16660;SDS011;8444;52.012;5.048;2023-01-23T08:55:10;28.27;;;15.37;;
16660;SDS011;8444;52.012;5.048;2023-01-23T08:57:36;30.87;;;15.60;;
16660;SDS011;8444;52.012;5.048;2023-01-23T09:00:02;24.93;;;14.67;;
16660;SDS011;8444;52.012;5.048;2023-01-23T09:02:27;25.97;;;16.03;;
16660;SDS011;8444;52.012;5.048;2023-01-23T09:04:52;25.83;;;14.67;;
16660;SDS011;8444;52.012;5.048;2023-01-23T09:07:18;23.57;;;13.87;;
16660;SDS011;8444;52.012;5.048;2023-01-23T09:09:43;26.30;;;14.13;;
16660;SDS011;8444;52.012;5.048;2023-01-23T09:12:08;22.40;;;13.37;;
16660;SDS011;8444;52.012;5.048;2023-01-23T09:14:33;25.67;;;15.17;;
16660;SDS011;8444;52.012;5.048;2023-01-23T09:16:58;22.20;;;14.33;;
16660;SDS011;8444;52.012;5.048;2023-01-23T09:19:24;25.03;;;14.67;;
16660;SDS011;8444;52.012;5.048;2023-01-23T09:21:51;21.77;;;13.97;;
16660;SDS011;8444;52.012;5.048;2023-01-23T09:24:16;23.57;;;13.40;;
16660;SDS011;8444;52.012;5.048;2023-01-23T09:26:41;23.03;;;14.03;;
16660;SDS011;8444;52.012;5.048;2023-01-23T09:29:07;25.77;;;14.90;;
16660;SDS011;8444;52.012;5.048;2023-01-23T09:31:32;22.87;;;13.63;;
16660;SDS011;8444;52.012;5.048;2023-01-23T09:33:57;22.07;;;14.03;;
16660;SDS011;8444;52.012;5.048;2023-01-23T09:36:23;21.00;;;13.20;;
16660;SDS011;8444;52.012;5.048;2023-01-23T09:38:49;26.13;;;13.67;;
16660;SDS011;8444;52.012;5.048;2023-01-23T09:46:10;23.27;;;13.67;;
16660;SDS011;8444;52.012;5.048;2023-01-23T09:51:12;23.30;;;13.33;;
16660;SDS011;8444;52.012;5.048;2023-01-23T09:53:38;21.17;;;14.13;;
16660;SDS011;8444;52.012;5.048;2023-01-23T10:01:32;22.07;;;12.90;;
16660;SDS011;8444;52.012;5.048;2023-01-23T10:03:57;23.37;;;13.87;;
16660;SDS011;8444;52.012;5.048;2023-01-23T10:06:24;22.77;;;12.77;;
16660;SDS011;8444;52.012;5.048;2023-01-23T10:14:05;23.83;;;13.90;;
16660;SDS011;8444;52.012;5.048;2023-01-23T10:16:41;21.27;;;13.20;;
16660;SDS011;8444;52.012;5.048;2023-01-23T10:19:27;20.67;;;12.57;;
16660;SDS011;8444;52.012;5.048;2023-01-23T10:24:25;20.93;;;13.27;;
16660;SDS011;8444;52.012;5.048;2023-01-23T10:26:58;28.33;;;14.80;;
16660;SDS011;8444;52.012;5.048;2023-01-23T10:29:28;18.77;;;12.57;;
16660;SDS011;8444;52.012;5.048;2023-01-23T10:31:55;23.50;;;12.70;;
16660;SDS011;8444;52.012;5.048;2023-01-23T10:40:00;20.73;;;13.03;;
16660;SDS011;8444;52.012;5.048;2023-01-23T10:42:00;17.27;;;11.43;;
16660;SDS011;8444;52.012;5.048;2023-01-23T10:44:25;17.50;;;11.70;;
16660;SDS011;8444;52.012;5.048;2023-01-23T10:46:55;19.43;;;11.83;;
16660;SDS011;8444;52.012;5.048;2023-01-23T10:49:29;16.73;;;11.27;;
16660;SDS011;8444;52.012;5.048;2023-01-23T10:51:55;18.07;;;12.80;;
16660;SDS011;8444;52.012;5.048;2023-01-23T10:54:21;18.20;;;11.53;;
16660;SDS011;8444;52.012;5.048;2023-01-23T10:56:49;22.40;;;11.30;;
16660;SDS011;8444;52.012;5.048;2023-01-23T10:59:37;15.70;;;10.93;;
16660;SDS011;8444;52.012;5.048;2023-01-23T11:04:27;15.33;;;10.50;;
16660;SDS011;8444;52.012;5.048;2023-01-23T11:06:59;17.63;;;11.07;;
16660;SDS011;8444;52.012;5.048;2023-01-23T11:09:25;16.50;;;11.40;;
16660;SDS011;8444;52.012;5.048;2023-01-23T11:12:03;21.73;;;11.93;;
16660;SDS011;8444;52.012;5.048;2023-01-23T11:14:29;16.93;;;11.00;;
16660;SDS011;8444;52.012;5.048;2023-01-23T11:16:58;15.13;;;10.40;;
16660;SDS011;8444;52.012;5.048;2023-01-23T11:19:24;15.87;;;10.67;;
16660;SDS011;8444;52.012;5.048;2023-01-23T11:26:57;14.50;;;10.13;;
16660;SDS011;8444;52.012;5.048;2023-01-23T11:29:23;15.37;;;11.20;;
16660;SDS011;8444;52.012;5.048;2023-01-23T11:32:09;15.87;;;10.50;;
16660;SDS011;8444;52.012;5.048;2023-01-23T11:37:31;17.13;;;11.07;;
16660;SDS011;8444;52.012;5.048;2023-01-23T11:40:00;15.07;;;10.40;;
16660;SDS011;8444;52.012;5.048;2023-01-23T11:42:26;15.20;;;10.50;;
16660;SDS011;8444;52.012;5.048;2023-01-23T11:44:52;15.20;;;10.03;;
16660;SDS011;8444;52.012;5.048;2023-01-23T12:07:49;13.60;;;9.67;;
16660;SDS011;8444;52.012;5.048;2023-01-23T12:10:23;16.13;;;10.43;;
16660;SDS011;8444;52.012;5.048;2023-01-23T12:12:53;15.90;;;11.33;;
16660;SDS011;8444;52.012;5.048;2023-01-23T12:18:00;16.53;;;10.53;;
16660;SDS011;8444;52.012;5.048;2023-01-23T12:25:37;19.07;;;13.27;;
16660;SDS011;8444;52.012;5.048;2023-01-23T12:43:45;11.63;;;8.40;;
16660;SDS011;8444;52.012;5.048;2023-01-23T12:46:21;13.63;;;9.27;;
16660;SDS011;8444;52.012;5.048;2023-01-23T12:48:56;11.90;;;8.27;;
16660;SDS011;8444;52.012;5.048;2023-01-23T12:51:44;17.10;;;9.60;;
16660;SDS011;8444;52.012;5.048;2023-01-23T12:54:11;19.30;;;10.63;;
16660;SDS011;8444;52.012;5.048;2023-01-23T12:56:39;15.40;;;9.90;;
16660;SDS011;8444;52.012;5.048;2023-01-23T13:01:51;12.13;;;8.83;;
16660;SDS011;8444;52.012;5.048;2023-01-23T13:04:35;13.70;;;8.57;;
16660;SDS011;8444;52.012;5.048;2023-01-23T13:10:03;11.80;;;8.33;;
16660;SDS011;8444;52.012;5.048;2023-01-23T13:12:29;10.97;;;7.97;;
16660;SDS011;8444;52.012;5.048;2023-01-23T13:25:50;11.90;;;8.50;;
16660;SDS011;8444;52.012;5.048;2023-01-23T13:28:39;11.83;;;8.37;;
16660;SDS011;8444;52.012;5.048;2023-01-23T13:31:04;11.53;;;8.13;;
16660;SDS011;8444;52.012;5.048;2023-01-23T13:36:11;12.57;;;8.70;;
16660;SDS011;8444;52.012;5.048;2023-01-23T13:38:36;13.07;;;9.20;;
16660;SDS011;8444;52.012;5.048;2023-01-23T13:48:51;11.87;;;8.67;;
16660;SDS011;8444;52.012;5.048;2023-01-23T13:51:36;12.30;;;8.63;;
16660;SDS011;8444;52.012;5.048;2023-01-23T13:54:01;16.47;;;10.10;;
16660;SDS011;8444;52.012;5.048;2023-01-23T13:56:45;13.10;;;9.03;;
16660;SDS011;8444;52.012;5.048;2023-01-23T13:59:29;16.00;;;9.30;;
16660;SDS011;8444;52.012;5.048;2023-01-23T14:05:10;12.80;;;9.70;;
16660;SDS011;8444;52.012;5.048;2023-01-23T14:07:37;13.27;;;9.27;;
16660;SDS011;8444;52.012;5.048;2023-01-23T14:10:19;13.00;;;9.63;;
16660;SDS011;8444;52.012;5.048;2023-01-23T14:12:45;16.27;;;9.80;;
16660;SDS011;8444;52.012;5.048;2023-01-23T14:15:17;11.27;;;8.00;;
16660;SDS011;8444;52.012;5.048;2023-01-23T14:18:01;14.20;;;9.10;;
16660;SDS011;8444;52.012;5.048;2023-01-23T14:20:28;11.57;;;8.20;;
16660;SDS011;8444;52.012;5.048;2023-01-23T14:22:55;11.27;;;8.03;;
16660;SDS011;8444;52.012;5.048;2023-01-23T14:25:21;11.33;;;8.20;;
16660;SDS011;8444;52.012;5.048;2023-01-23T14:27:46;11.50;;;8.00;;
16660;SDS011;8444;52.012;5.048;2023-01-23T14:30:15;12.67;;;8.40;;
16660;SDS011;8444;52.012;5.048;2023-01-23T14:32:40;10.07;;;7.03;;
16660;SDS011;8444;52.012;5.048;2023-01-23T14:35:22;11.57;;;7.90;;
16660;SDS011;8444;52.012;5.048;2023-01-23T14:37:47;11.23;;;8.00;;
16660;SDS011;8444;52.012;5.048;2023-01-23T14:40:16;12.87;;;8.27;;
16660;SDS011;8444;52.012;5.048;2023-01-23T14:42:41;10.90;;;7.20;;
16660;SDS011;8444;52.012;5.048;2023-01-23T14:45:07;10.87;;;7.33;;
16660;SDS011;8444;52.012;5.048;2023-01-23T14:47:39;13.00;;;7.90;;
16660;SDS011;8444;52.012;5.048;2023-01-23T14:50:09;11.70;;;7.40;;
16660;SDS011;8444;52.012;5.048;2023-01-23T14:52:34;11.10;;;7.00;;
16660;SDS011;8444;52.012;5.048;2023-01-23T14:55:00;10.77;;;7.70;;
16660;SDS011;8444;52.012;5.048;2023-01-23T14:57:25;10.50;;;7.27;;
16660;SDS011;8444;52.012;5.048;2023-01-23T14:59:55;12.40;;;7.83;;
16660;SDS011;8444;52.012;5.048;2023-01-23T15:07:50;11.70;;;8.03;;
16660;SDS011;8444;52.012;5.048;2023-01-23T15:10:19;9.33;;;6.83;;
16660;SDS011;8444;52.012;5.048;2023-01-23T15:12:50;9.30;;;6.77;;
16660;SDS011;8444;52.012;5.048;2023-01-23T15:15:17;9.40;;;6.73;;
16660;SDS011;8444;52.012;5.048;2023-01-23T15:17:43;9.20;;;6.50;;
16660;SDS011;8444;52.012;5.048;2023-01-23T15:22:52;12.30;;;7.63;;
16660;SDS011;8444;52.012;5.048;2023-01-23T15:25:28;11.93;;;7.70;;
16660;SDS011;8444;52.012;5.048;2023-01-23T15:27:53;12.97;;;8.63;;
16660;SDS011;8444;52.012;5.048;2023-01-23T15:33:00;11.33;;;7.77;;
16660;SDS011;8444;52.012;5.048;2023-01-23T15:35:31;12.20;;;7.57;;
16660;SDS011;8444;52.012;5.048;2023-01-23T15:37:57;11.60;;;8.03;;
16660;SDS011;8444;52.012;5.048;2023-01-23T15:40:28;11.30;;;8.57;;
16660;SDS011;8444;52.012;5.048;2023-01-23T15:45:26;10.03;;;7.20;;
16660;SDS011;8444;52.012;5.048;2023-01-23T15:47:51;9.83;;;6.53;;
16660;SDS011;8444;52.012;5.048;2023-01-23T15:50:17;10.23;;;7.63;;
16660;SDS011;8444;52.012;5.048;2023-01-23T15:52:46;11.40;;;7.63;;
16660;SDS011;8444;52.012;5.048;2023-01-23T15:55:11;11.43;;;7.57;;
16660;SDS011;8444;52.012;5.048;2023-01-23T15:57:37;10.33;;;7.43;;
16660;SDS011;8444;52.012;5.048;2023-01-23T16:00:24;12.63;;;7.27;;
16660;SDS011;8444;52.012;5.048;2023-01-23T16:02:51;11.67;;;7.00;;
16660;SDS011;8444;52.012;5.048;2023-01-23T16:05:20;11.77;;;7.50;;
16660;SDS011;8444;52.012;5.048;2023-01-23T16:07:45;13.33;;;8.40;;
16660;SDS011;8444;52.012;5.048;2023-01-23T16:13:08;10.93;;;7.70;;
16660;SDS011;8444;52.012;5.048;2023-01-23T16:15:36;9.77;;;6.70;;
16660;SDS011;8444;52.012;5.048;2023-01-23T16:18:03;11.80;;;7.13;;
16660;SDS011;8444;52.012;5.048;2023-01-23T16:20:32;9.67;;;7.40;;
16660;SDS011;8444;52.012;5.048;2023-01-23T16:23:19;10.60;;;7.83;;
16660;SDS011;8444;52.012;5.048;2023-01-23T16:25:45;10.07;;;6.97;;
16660;SDS011;8444;52.012;5.048;2023-01-23T16:28:14;11.67;;;7.40;;
16660;SDS011;8444;52.012;5.048;2023-01-23T16:30:40;10.57;;;7.87;;
16660;SDS011;8444;52.012;5.048;2023-01-23T16:33:05;11.90;;;7.40;;
16660;SDS011;8444;52.012;5.048;2023-01-23T16:35:30;12.30;;;8.30;;
16660;SDS011;8444;52.012;5.048;2023-01-23T16:37:56;11.27;;;7.93;;
16660;SDS011;8444;52.012;5.048;2023-01-23T16:40:24;10.93;;;8.20;;
16660;SDS011;8444;52.012;5.048;2023-01-23T16:42:50;14.77;;;8.40;;
16660;SDS011;8444;52.012;5.048;2023-01-23T16:47:41;12.57;;;8.67;;
16660;SDS011;8444;52.012;5.048;2023-01-23T16:50:08;16.97;;;10.23;;
16660;SDS011;8444;52.012;5.048;2023-01-23T16:52:35;15.07;;;9.80;;
16660;SDS011;8444;52.012;5.048;2023-01-23T16:55:00;16.07;;;10.47;;
16660;SDS011;8444;52.012;5.048;2023-01-23T16:57:27;15.27;;;10.43;;
16660;SDS011;8444;52.012;5.048;2023-01-23T16:59:52;13.83;;;8.53;;